createdAt,value
2019-05-26T00:00:47.061Z,99.90
2019-05-26T00:03:26.616Z,99.90
2019-05-26T00:06:06.657Z,99.90
2019-05-26T00:08:46.501Z,99.90
2019-05-26T00:14:17.300Z,99.90
2019-05-26T00:16:56.358Z,99.90
2019-05-26T00:19:36.161Z,99.90
2019-05-26T00:22:15.192Z,99.90
2019-05-26T00:24:55.068Z,99.90
2019-05-26T00:27:34.273Z,99.90
2019-05-26T00:30:14.561Z,99.90
2019-05-26T00:32:53.692Z,99.90
2019-05-26T00:35:19.803Z,99.90
2019-05-26T00:38:05.724Z,99.90
2019-05-26T00:40:32.111Z,99.90
2019-05-26T00:43:20.591Z,99.90
2019-05-26T00:46:00.486Z,99.90
2019-05-26T00:48:40.236Z,99.90
2019-05-26T00:51:21.221Z,99.90
2019-05-26T00:54:01.080Z,99.90
2019-05-26T00:56:40.214Z,99.90
2019-05-26T00:59:19.214Z,99.90
2019-05-26T01:01:58.344Z,99.90
2019-05-26T01:04:37.503Z,99.90
2019-05-26T01:07:17.540Z,99.90
2019-05-26T01:09:57.286Z,99.90
2019-05-26T01:12:37.127Z,99.90
2019-05-26T01:18:23.757Z,99.90
2019-05-26T01:21:03.093Z,99.90
2019-05-26T01:23:42.284Z,99.90
2019-05-26T01:26:08.344Z,99.90
2019-05-26T01:28:54.264Z,99.90
2019-05-26T01:31:34.164Z,99.90
2019-05-26T01:34:13.247Z,99.90
2019-05-26T01:36:53.060Z,99.90
2019-05-26T01:42:15.244Z,99.90
2019-05-26T01:44:54.920Z,99.90
2019-05-26T01:47:34.121Z,99.90
2019-05-26T01:50:13.372Z,99.90
2019-05-26T01:52:54.045Z,99.90
2019-05-26T01:55:33.285Z,99.90
2019-05-26T01:58:13.514Z,99.90
2019-05-26T02:00:55.273Z,99.90
2019-05-26T02:03:34.398Z,99.90
2019-05-26T02:06:01.090Z,99.90
2019-05-26T02:08:47.245Z,99.90
2019-05-26T02:11:33.177Z,99.90
2019-05-26T02:13:59.184Z,99.90
2019-05-26T02:16:45.086Z,99.90
2019-05-26T02:19:24.972Z,99.90
2019-05-26T02:24:51.405Z,99.90
2019-05-26T02:27:32.026Z,99.90
2019-05-26T02:32:40.678Z,99.90
2019-05-26T02:35:26.753Z,99.90
2019-05-26T02:38:05.703Z,99.90
2019-05-26T02:40:45.515Z,99.90
2019-05-26T02:43:24.426Z,99.90
2019-05-26T02:46:03.521Z,99.90
2019-05-26T02:48:42.789Z,99.90
2019-05-26T02:54:07.111Z,99.90
2019-05-26T02:56:33.172Z,99.90
2019-05-26T02:58:59.169Z,99.90
2019-05-26T03:04:52.745Z,99.90
2019-05-26T03:07:31.832Z,99.90
2019-05-26T03:10:12.925Z,99.90
2019-05-26T03:15:34.000Z,99.90
2019-05-26T03:18:13.052Z,99.90
2019-05-26T03:20:54.020Z,99.90
2019-05-26T03:23:33.180Z,99.90
2019-05-26T03:26:12.153Z,99.90
2019-05-26T03:28:52.034Z,99.90
2019-05-26T03:31:31.184Z,99.90
2019-05-26T03:34:10.205Z,99.90
2019-05-26T03:36:49.158Z,99.90
2019-05-26T03:39:43.723Z,99.90
2019-05-26T03:42:10.194Z,99.90
2019-05-26T03:44:49.828Z,99.90
2019-05-26T03:47:29.607Z,99.90
2019-05-26T03:52:39.071Z,99.90
2019-05-26T03:55:24.977Z,99.90
2019-05-26T03:58:05.334Z,99.90
2019-05-26T04:00:44.563Z,99.90
2019-05-26T04:03:24.477Z,99.90
2019-05-26T04:06:04.295Z,99.90
2019-05-26T04:08:30.801Z,99.90
2019-05-26T04:11:16.707Z,99.90
2019-05-26T04:13:42.710Z,99.90
2019-05-26T04:16:28.591Z,99.90
2019-05-26T04:19:08.424Z,99.90
2019-05-26T04:21:34.453Z,99.90
2019-05-26T04:24:00.813Z,99.90
2019-05-26T04:26:46.783Z,99.90
2019-05-26T04:29:12.813Z,99.90
2019-05-26T04:32:01.826Z,99.90
2019-05-26T04:34:46.584Z,99.90
2019-05-26T04:37:26.291Z,99.90
2019-05-26T04:40:24.813Z,99.90
2019-05-26T04:42:46.588Z,99.90
2019-05-26T04:45:27.482Z,99.90
2019-05-26T04:48:06.484Z,99.90
2019-05-26T04:50:45.702Z,99.90
2019-05-26T04:53:25.477Z,99.90
2019-05-26T04:56:05.207Z,99.90
2019-05-26T04:58:44.239Z,99.90
2019-05-26T05:01:25.765Z,99.90
2019-05-26T05:04:06.299Z,99.90
2019-05-26T05:06:46.244Z,99.90
2019-05-26T05:09:25.363Z,99.90
2019-05-26T05:12:05.324Z,99.90
2019-05-26T05:14:44.374Z,99.90
2019-05-26T05:17:23.404Z,99.90
2019-05-26T05:20:03.305Z,99.90
2019-05-26T05:22:43.128Z,99.90
2019-05-26T05:25:22.204Z,99.90
2019-05-26T05:28:01.474Z,99.90
2019-05-26T05:30:41.424Z,99.90
2019-05-26T05:33:21.543Z,99.90
2019-05-26T05:36:01.381Z,99.90
2019-05-26T05:38:41.294Z,99.90
2019-05-26T05:41:07.355Z,99.90
2019-05-26T05:43:33.379Z,99.90
2019-05-26T05:46:19.294Z,99.90
2019-05-26T05:49:05.380Z,99.90
2019-05-26T05:51:31.379Z,99.90
2019-05-26T05:54:17.268Z,99.90
2019-05-26T05:57:03.212Z,99.90
2019-05-26T05:59:42.741Z,99.90
2019-05-26T06:02:08.749Z,99.90
2019-05-26T06:04:54.649Z,99.90
2019-05-26T06:07:40.558Z,99.90
2019-05-26T06:10:24.188Z,99.90
2019-05-26T06:15:45.633Z,99.90
2019-05-26T06:18:25.676Z,99.90
2019-05-26T06:21:06.932Z,99.90
2019-05-26T06:26:30.953Z,99.90
2019-05-26T06:29:11.057Z,99.90
2019-05-26T06:31:51.300Z,99.90
2019-05-26T06:34:31.053Z,99.90
2019-05-26T06:37:10.849Z,99.90
2019-05-26T06:39:52.793Z,99.90
2019-05-26T06:42:32.332Z,99.90
2019-05-26T06:45:12.454Z,99.90
2019-05-26T06:47:54.627Z,99.90
2019-05-26T06:50:34.280Z,99.90
2019-05-26T06:56:03.971Z,99.90
2019-05-26T06:58:43.899Z,99.90
2019-05-26T07:01:24.852Z,99.90
2019-05-26T07:07:18.215Z,99.90
2019-05-26T07:09:58.087Z,99.90
2019-05-26T07:12:39.443Z,99.90
2019-05-26T07:15:19.180Z,99.90
2019-05-26T07:17:58.347Z,99.90
2019-05-26T07:23:27.564Z,99.90
2019-05-26T07:29:02.571Z,99.90
2019-05-26T07:31:42.883Z,99.90
2019-05-26T07:34:22.852Z,99.90
2019-05-26T07:37:02.888Z,99.90
2019-05-26T07:39:42.834Z,99.90
2019-05-26T07:42:22.792Z,99.90
2019-05-26T07:47:45.960Z,99.90
2019-05-26T07:53:00.104Z,99.90
2019-05-26T07:59:00.015Z,99.90
2019-05-26T08:04:29.389Z,99.90
2019-05-26T08:07:09.474Z,99.90
2019-05-26T08:09:35.492Z,99.90
2019-05-26T08:12:26.883Z,99.90
2019-05-26T08:15:09.476Z,99.90
2019-05-26T08:17:48.980Z,99.90
2019-05-26T08:23:16.980Z,99.90
2019-05-26T08:25:56.518Z,99.90
2019-05-26T08:28:36.949Z,99.90
2019-05-26T08:36:56.102Z,99.90
2019-05-26T08:39:35.366Z,99.90
2019-05-26T08:42:04.108Z,99.90
2019-05-26T08:44:50.236Z,99.90
2019-05-26T08:47:16.361Z,99.90
2019-05-26T08:49:42.441Z,99.90
2019-05-26T08:52:08.702Z,99.90
2019-05-26T08:54:54.586Z,99.90
2019-05-26T08:57:34.540Z,99.90
2019-05-26T09:03:34.854Z,99.90
2019-05-26T09:09:03.290Z,99.90
2019-05-26T09:11:43.052Z,99.90
2019-05-26T09:14:25.491Z,99.90
2019-05-26T09:17:05.558Z,99.90
2019-05-26T09:19:32.476Z,99.90
2019-05-26T09:22:18.366Z,99.90
2019-05-26T09:24:58.234Z,99.90
2019-05-26T09:27:37.214Z,99.90
2019-05-26T09:30:22.632Z,99.90
2019-05-26T09:33:01.587Z,99.90
2019-05-26T09:35:41.495Z,99.90
2019-05-26T09:38:21.400Z,99.90
2019-05-26T09:41:01.294Z,99.90
2019-05-26T09:49:14.152Z,99.90
2019-05-26T09:51:40.415Z,99.80
2019-05-26T09:54:27.712Z,99.90
2019-05-26T09:57:13.648Z,99.90
2019-05-26T09:59:52.872Z,99.40
2019-05-26T10:10:50.846Z,98.40
2019-05-26T10:13:32.046Z,98.00
2019-05-26T10:15:58.559Z,98.10
2019-05-26T10:18:44.524Z,97.80
2019-05-26T10:21:27.543Z,97.50
2019-05-26T10:24:09.257Z,96.80
2019-05-26T10:26:48.846Z,97.20
2019-05-26T10:29:30.184Z,98.10
2019-05-26T10:31:56.232Z,98.10
2019-05-26T10:37:31.889Z,98.20
2019-05-26T10:40:15.642Z,97.10
2019-05-26T10:45:42.702Z,97.00
2019-05-26T10:50:55.680Z,97.20
2019-05-26T10:53:21.700Z,96.30
2019-05-26T10:55:47.766Z,96.20
2019-05-26T10:58:15.720Z,95.90
2019-05-26T11:00:43.047Z,96.70
2019-05-26T11:03:09.112Z,96.80
2019-05-26T11:05:36.153Z,96.00
2019-05-26T11:08:02.235Z,96.10
2019-05-26T11:10:29.427Z,96.20
2019-05-26T11:12:55.532Z,96.90
2019-05-26T11:15:21.587Z,96.20
2019-05-26T11:17:47.597Z,94.90
2019-05-26T11:20:14.290Z,95.40
2019-05-26T11:22:40.903Z,94.40
2019-05-26T11:25:09.271Z,93.30
2019-05-26T11:27:35.364Z,93.70
2019-05-26T11:30:01.403Z,93.40
2019-05-26T11:32:27.669Z,93.20
2019-05-26T11:35:01.473Z,93.80
2019-05-26T11:37:21.706Z,94.10
2019-05-26T11:39:47.698Z,93.10
2019-05-26T11:42:18.899Z,92.70
2019-05-26T11:44:44.974Z,91.30
2019-05-26T11:47:11.009Z,91.40
2019-05-26T11:49:37.110Z,91.50
2019-05-26T11:52:03.132Z,91.60
2019-05-26T11:54:29.540Z,90.80
2019-05-26T11:56:57.743Z,87.20
2019-05-26T11:59:24.418Z,87.00
2019-05-26T12:01:50.454Z,86.20
2019-05-26T12:04:16.539Z,86.80
2019-05-26T12:06:42.550Z,87.20
2019-05-26T12:09:09.643Z,85.40
2019-05-26T12:11:35.731Z,86.10
2019-05-26T12:14:02.992Z,86.40
2019-05-26T12:16:29.109Z,84.90
2019-05-26T12:18:55.194Z,83.00
2019-05-26T12:21:27.186Z,83.80
2019-05-26T12:23:55.020Z,85.10
2019-05-26T12:26:21.240Z,84.60
2019-05-26T12:28:47.274Z,85.20
2019-05-26T12:31:13.320Z,83.80
2019-05-26T12:33:39.847Z,82.60
2019-05-26T12:36:05.901Z,82.10
2019-05-26T12:38:35.228Z,83.20
2019-05-26T12:41:01.292Z,82.40
2019-05-26T12:43:29.080Z,81.20
2019-05-26T12:45:55.155Z,81.40
2019-05-26T12:48:21.296Z,81.80
2019-05-26T12:50:47.451Z,81.80
2019-05-26T12:53:13.524Z,81.10
2019-05-26T12:55:39.831Z,81.80
2019-05-26T12:58:06.053Z,82.60
2019-05-26T13:00:47.621Z,83.40
2019-05-26T13:03:00.061Z,82.60
2019-05-26T13:05:26.076Z,83.00
2019-05-26T13:07:52.298Z,81.40
2019-05-26T13:10:18.847Z,80.10
2019-05-26T13:12:44.975Z,80.30
2019-05-26T13:15:13.056Z,80.40
2019-05-26T13:17:39.118Z,80.60
2019-05-26T13:20:06.737Z,79.10
2019-05-26T13:22:32.742Z,79.00
2019-05-26T13:24:58.924Z,79.50
2019-05-26T13:27:25.002Z,78.70
2019-05-26T13:29:51.088Z,79.40
2019-05-26T13:32:17.214Z,74.80
2019-05-26T13:34:43.214Z,73.40
2019-05-26T13:37:09.250Z,72.30
2019-05-26T13:39:37.605Z,73.80
2019-05-26T13:42:03.909Z,74.00
2019-05-26T13:44:29.920Z,74.40
2019-05-26T13:46:56.195Z,74.40
2019-05-26T13:49:24.144Z,72.80
2019-05-26T13:51:50.616Z,70.70
2019-05-26T13:54:18.706Z,68.30
2019-05-26T13:56:44.675Z,68.80
2019-05-26T13:59:10.690Z,68.60
2019-05-26T14:01:36.681Z,68.30
2019-05-26T14:04:03.781Z,67.10
2019-05-26T14:06:29.814Z,66.30
2019-05-26T14:08:55.870Z,68.60
2019-05-26T14:11:22.575Z,69.70
2019-05-26T14:13:48.607Z,66.70
2019-05-26T14:16:15.023Z,66.30
2019-05-26T14:18:42.861Z,63.90
2019-05-26T14:21:08.912Z,62.80
2019-05-26T14:23:34.927Z,59.90
2019-05-26T14:26:02.842Z,59.30
2019-05-26T14:28:28.896Z,61.40
2019-05-26T14:30:54.944Z,60.00
2019-05-26T14:33:20.950Z,58.30
2019-05-26T14:35:46.964Z,60.00
2019-05-26T14:38:13.594Z,60.00
2019-05-26T14:40:39.627Z,59.90
2019-05-26T14:43:05.611Z,59.00
2019-05-26T14:45:32.473Z,56.30
2019-05-26T14:47:58.490Z,56.70
2019-05-26T14:50:25.488Z,57.10
2019-05-26T14:52:51.764Z,55.90
2019-05-26T14:55:18.505Z,55.10
2019-05-26T14:57:44.633Z,55.20
2019-05-26T15:00:11.222Z,53.90
2019-05-26T15:02:37.619Z,53.90
2019-05-26T15:05:05.005Z,54.30
2019-05-26T15:07:31.030Z,53.40
2019-05-26T15:09:57.090Z,52.30
2019-05-26T15:12:23.140Z,52.50
2019-05-26T15:14:49.158Z,52.40
2019-05-26T15:17:15.397Z,52.70
2019-05-26T15:19:41.420Z,52.10
2019-05-26T15:22:08.702Z,52.30
2019-05-26T15:24:34.721Z,53.50
2019-05-26T15:27:00.752Z,54.10
2019-05-26T15:29:26.786Z,52.90
2019-05-26T15:31:52.765Z,52.30
2019-05-26T15:34:18.768Z,53.80
2019-05-26T15:36:44.788Z,54.50
2019-05-26T15:39:10.889Z,53.90
2019-05-26T15:41:36.912Z,54.90
2019-05-26T15:44:03.250Z,53.30
2019-05-26T15:46:29.242Z,53.30
2019-05-26T15:48:55.280Z,53.30
2019-05-26T15:51:21.322Z,50.90
2019-05-26T15:53:47.293Z,50.50
2019-05-26T15:56:13.801Z,51.10
2019-05-26T15:58:40.069Z,51.40
2019-05-26T16:01:06.171Z,50.90
2019-05-26T16:03:35.078Z,50.70
2019-05-26T16:06:01.115Z,50.60
2019-05-26T16:08:27.110Z,50.60
2019-05-26T16:10:53.130Z,49.50
2019-05-26T16:13:19.128Z,49.60
2019-05-26T16:15:45.238Z,49.50
2019-05-26T16:18:11.308Z,49.00
2019-05-26T16:20:39.261Z,48.40
2019-05-26T16:23:08.575Z,49.00
2019-05-26T16:25:33.181Z,49.20
2019-05-26T16:27:59.201Z,50.20
2019-05-26T16:30:25.225Z,49.30
2019-05-26T16:32:52.371Z,48.50
2019-05-26T16:35:23.133Z,47.60
2019-05-26T16:37:49.194Z,47.30
2019-05-26T16:40:15.525Z,47.70
2019-05-26T16:42:41.596Z,47.60
2019-05-26T16:45:08.121Z,47.00
2019-05-26T16:47:34.151Z,47.80
2019-05-26T16:50:00.161Z,48.10
2019-05-26T16:52:26.285Z,48.60
2019-05-26T16:54:52.286Z,48.80
2019-05-26T16:57:18.825Z,47.50
2019-05-26T16:59:44.863Z,47.50
2019-05-26T17:02:10.933Z,47.40
2019-05-26T17:04:37.039Z,47.20
2019-05-26T17:07:03.151Z,46.80
2019-05-26T17:09:29.144Z,47.40
2019-05-26T17:11:55.160Z,48.40
2019-05-26T17:14:21.194Z,49.20
2019-05-26T17:16:47.496Z,49.60
2019-05-26T17:19:13.563Z,50.00
2019-05-26T17:21:40.213Z,50.50
2019-05-26T17:24:06.309Z,49.00
2019-05-26T17:26:32.421Z,49.60
2019-05-26T17:28:58.431Z,51.10
2019-05-26T17:31:24.435Z,52.20
2019-05-26T17:33:50.682Z,53.20
2019-05-26T17:36:16.689Z,53.80
2019-05-26T17:38:42.716Z,54.20
2019-05-26T17:41:08.706Z,55.00
2019-05-26T17:43:34.727Z,55.80
2019-05-26T17:46:00.743Z,56.50
2019-05-26T17:48:26.732Z,57.10
2019-05-26T17:50:55.346Z,57.70
2019-05-26T17:53:21.948Z,58.10
2019-05-26T17:55:47.982Z,58.70
2019-05-26T17:58:15.879Z,59.40
2019-05-26T18:00:41.911Z,60.20
2019-05-26T18:03:07.940Z,61.20
2019-05-26T18:05:35.001Z,62.20
2019-05-26T18:08:01.308Z,63.20
2019-05-26T18:10:27.330Z,63.50
2019-05-26T18:12:53.327Z,64.20
2019-05-26T18:15:19.685Z,64.90
2019-05-26T18:17:47.240Z,65.50
2019-05-26T18:20:14.287Z,65.50
2019-05-26T18:22:41.472Z,66.60
2019-05-26T18:25:08.154Z,67.20
2019-05-26T18:27:36.654Z,68.00
2019-05-26T18:30:05.247Z,68.90
2019-05-26T18:32:31.250Z,69.60
2019-05-26T18:34:57.294Z,70.30
2019-05-26T18:37:23.385Z,70.70
2019-05-26T18:39:49.425Z,71.40
2019-05-26T18:42:15.466Z,72.20
2019-05-26T18:44:41.598Z,73.00
2019-05-26T18:47:07.576Z,73.70
2019-05-26T18:49:33.576Z,74.00
2019-05-26T18:51:59.583Z,75.20
2019-05-26T18:54:25.655Z,76.00
2019-05-26T18:56:51.766Z,76.50
2019-05-26T18:59:17.815Z,77.10
2019-05-26T19:01:44.018Z,78.00
2019-05-26T19:04:10.073Z,78.80
2019-05-26T19:06:36.394Z,79.70
2019-05-26T19:09:05.953Z,80.40
2019-05-26T19:11:31.975Z,81.20
2019-05-26T19:13:59.881Z,81.70
2019-05-26T19:16:25.959Z,82.80
2019-05-26T19:18:51.940Z,82.90
2019-05-26T19:21:18.176Z,82.70
2019-05-26T19:23:44.892Z,82.80
2019-05-26T19:26:10.953Z,83.30
2019-05-26T19:28:37.005Z,84.10
2019-05-26T19:31:03.133Z,84.90
2019-05-26T19:33:29.161Z,85.70
2019-05-26T19:35:55.891Z,86.30
2019-05-26T19:38:21.876Z,86.60
2019-05-26T19:40:47.983Z,87.20
2019-05-26T19:43:13.992Z,88.40
2019-05-26T19:45:40.083Z,89.80
2019-05-26T19:48:06.115Z,90.40
2019-05-26T19:50:33.430Z,90.70
2019-05-26T19:53:00.442Z,91.00
2019-05-26T19:55:26.556Z,91.20
2019-05-26T19:57:52.682Z,91.40
2019-05-26T20:00:20.915Z,91.70
2019-05-26T20:02:47.295Z,91.80
2019-05-26T20:05:13.776Z,92.00
2019-05-26T20:07:40.058Z,92.20
2019-05-26T20:10:06.686Z,92.60
2019-05-26T20:12:32.700Z,93.20
2019-05-26T20:14:58.975Z,93.40
2019-05-26T20:17:25.287Z,93.80
2019-05-26T20:19:51.393Z,93.70
2019-05-26T20:22:17.554Z,94.00
2019-05-26T20:24:43.590Z,93.80
2019-05-26T20:27:09.649Z,94.00
2019-05-26T20:29:35.670Z,93.80
2019-05-26T20:32:04.844Z,94.20
2019-05-26T20:34:32.220Z,94.30
2019-05-26T20:36:59.634Z,94.40
2019-05-26T20:39:25.655Z,94.50
2019-05-26T20:41:51.698Z,94.70
2019-05-26T20:44:17.687Z,94.80
2019-05-26T20:46:43.790Z,95.10
2019-05-26T20:49:09.795Z,95.30
2019-05-26T20:51:35.836Z,95.60
2019-05-26T20:54:02.075Z,95.60
2019-05-26T20:56:28.317Z,95.80
2019-05-26T20:58:54.333Z,96.00
2019-05-26T21:01:20.388Z,96.40
2019-05-26T21:03:48.453Z,96.30
2019-05-26T21:06:16.376Z,96.60
2019-05-26T21:08:42.406Z,97.00
2019-05-26T21:11:08.424Z,97.40
2019-05-26T21:13:34.485Z,97.70
2019-05-26T21:16:00.792Z,97.80
2019-05-26T21:18:26.840Z,98.00
2019-05-26T21:20:52.952Z,98.30
2019-05-26T21:23:22.520Z,98.50
2019-05-26T21:25:46.901Z,98.30
2019-05-26T21:28:12.968Z,98.70
2019-05-26T21:30:39.089Z,98.90
2019-05-26T21:33:14.034Z,99.80
2019-05-26T21:35:40.091Z,99.90
2019-05-26T21:38:06.252Z,99.90
2019-05-26T21:40:32.293Z,99.90
2019-05-26T21:42:59.158Z,99.90
2019-05-26T21:45:25.287Z,99.90
2019-05-26T21:47:52.427Z,99.90
2019-05-26T21:50:18.749Z,99.90
2019-05-26T21:52:45.881Z,99.90
2019-05-26T21:55:12.096Z,99.90
2019-05-26T21:57:41.432Z,99.90
2019-05-26T22:00:12.691Z,99.90
2019-05-26T22:02:39.840Z,99.90
2019-05-26T22:05:06.121Z,99.90
2019-05-26T22:07:32.341Z,99.90
2019-05-26T22:09:58.379Z,99.90
2019-05-26T22:12:24.436Z,99.90
2019-05-26T22:14:50.901Z,99.90
2019-05-26T22:17:16.911Z,99.90
2019-05-26T22:19:42.996Z,99.90
2019-05-26T22:22:09.044Z,99.90
2019-05-26T22:24:35.066Z,99.90
2019-05-26T22:27:01.085Z,99.90
2019-05-26T22:29:27.110Z,99.90
2019-05-26T22:31:53.241Z,99.90
2019-05-26T22:34:19.361Z,99.90
2019-05-26T22:36:45.501Z,99.90
2019-05-26T22:39:12.972Z,99.90
2019-05-26T22:41:39.169Z,99.90
2019-05-26T22:44:05.199Z,99.90
2019-05-26T22:46:32.262Z,99.90
2019-05-26T22:48:58.305Z,99.90
2019-05-26T22:51:24.336Z,99.90
2019-05-26T22:53:52.300Z,99.90
2019-05-26T22:56:20.691Z,99.90
2019-05-26T22:58:50.080Z,99.90
2019-05-26T23:01:16.106Z,99.90
2019-05-26T23:03:42.213Z,99.90
2019-05-26T23:06:09.485Z,99.90
2019-05-26T23:08:35.916Z,99.90
2019-05-26T23:11:01.962Z,99.90
2019-05-26T23:13:27.994Z,99.90
2019-05-26T23:15:54.762Z,99.90
2019-05-26T23:18:20.826Z,99.90
2019-05-26T23:20:48.072Z,99.90
2019-05-26T23:23:14.072Z,99.90
2019-05-26T23:25:40.235Z,99.90
2019-05-26T23:28:06.285Z,99.90
2019-05-26T23:30:32.331Z,99.90
2019-05-26T23:32:59.904Z,99.90
2019-05-26T23:35:25.983Z,99.90
2019-05-26T23:37:51.992Z,99.90
2019-05-26T23:40:19.540Z,99.90
2019-05-26T23:42:45.534Z,99.90
2019-05-26T23:45:11.674Z,99.90
2019-05-26T23:47:37.709Z,99.90
2019-05-26T23:50:04.670Z,99.90
2019-05-26T23:52:32.626Z,99.90
2019-05-26T23:54:59.991Z,99.90
2019-05-26T23:57:26.045Z,99.90
2019-05-26T23:59:52.075Z,99.90
